Time;durP1;ratioP1;P1;durP2;ratioP2;P2;SDS_P1;SDS_P2;PMS_P1;PMS_P2;Temp;Humidity;BMP_temperature;BMP_pressure;BME280_temperature;BME280_humidity;BME280_pressure;Samples;Min_cycle;Max_cycle;Signal;HPM_P1;HPM_P2
2021/04/12 00:00:22;;;;;;;8.30;7.50;;;9.00;1.00;;;;;;5073370;28;20438;-59
2021/04/12 00:02:55;;;;;;;9.23;8.37;;;8.90;1.00;;;;;;5071399;28;20430;-59
2021/04/12 00:05:30;;;;;;;9.40;8.57;;;9.10;1.00;;;;;;5071999;28;20445;-59
2021/04/12 00:08:20;;;;;;;10.03;9.03;;;8.70;1.00;;;;;;5070566;28;20454;-59
2021/04/12 00:11:04;;;;;;;10.37;9.37;;;8.50;1.00;;;;;;5064477;28;21046;-59
2021/04/12 00:13:48;;;;;;;8.90;8.10;;;8.20;1.00;;;;;;5066617;28;20469;-60
2021/04/12 00:16:35;;;;;;;9.63;8.63;;;8.20;1.00;;;;;;5064682;28;20831;-58
2021/04/12 00:19:18;;;;;;;8.97;8.17;;;8.10;1.00;;;;;;5065787;28;20500;-59
2021/04/12 00:22:09;;;;;;;7.90;7.10;;;8.10;1.00;;;;;;5065700;28;20842;-59
2021/04/12 00:24:43;;;;;;;8.50;7.70;;;7.90;1.00;;;;;;5066732;28;20520;-59
2021/04/12 00:27:09;;;;;;;9.47;7.90;;;8.10;1.00;;;;;;5064465;28;20492;-58
2021/04/12 00:29:55;;;;;;;8.03;7.23;;;8.10;1.00;;;;;;5067237;28;20445;-59
2021/04/12 00:32:28;;;;;;;8.40;7.60;;;8.10;1.00;;;;;;5064280;28;20736;-58
2021/04/12 00:35:09;;;;;;;9.43;7.70;;;8.00;1.00;;;;;;5066704;28;21012;-59
2021/04/12 00:37:50;;;;;;;8.50;7.60;;;7.90;1.00;;;;;;5065895;28;20519;-58
2021/04/12 00:40:34;;;;;;;8.53;7.60;;;7.90;1.00;;;;;;5067960;28;20449;-58
2021/04/12 00:43:16;;;;;;;8.63;7.80;;;8.00;1.00;;;;;;5068027;28;20507;-59
2021/04/12 00:45:51;;;;;;;9.27;7.97;;;8.00;1.00;;;;;;5066760;28;20477;-58
2021/04/12 00:48:36;;;;;;;9.30;8.23;;;8.00;1.00;;;;;;5068959;28;20440;-58
2021/04/12 00:51:36;;;;;;;9.20;7.67;;;8.10;1.00;;;;;;5066869;28;20469;-59
2021/04/12 00:54:17;;;;;;;8.30;7.50;;;8.00;1.00;;;;;;5065916;28;20504;-58
2021/04/12 00:56:49;;;;;;;9.03;7.37;;;8.00;1.00;;;;;;5068979;28;20768;-60
2021/04/12 00:59:45;;;;;;;9.33;6.67;;;7.90;1.00;;;;;;5067003;28;20826;-58
2021/04/12 01:02:40;;;;;;;8.30;7.33;;;7.90;1.00;;;;;;5068423;28;20468;-60
2021/04/12 01:05:25;;;;;;;7.33;6.63;;;7.70;1.00;;;;;;5063375;28;20450;-58
2021/04/12 01:08:16;;;;;;;9.57;7.00;;;7.50;1.00;;;;;;5068419;28;20532;-59
2021/04/12 01:11:09;;;;;;;7.87;6.67;;;7.50;1.00;;;;;;5069168;28;20511;-60
2021/04/12 01:13:59;;;;;;;9.50;5.90;;;7.50;1.00;;;;;;5069319;28;20556;-58
2021/04/12 01:16:49;;;;;;;6.47;5.83;;;7.60;1.00;;;;;;5066766;28;20553;-58
2021/04/12 01:19:45;;;;;;;6.33;5.43;;;7.40;1.00;;;;;;5067884;28;20764;-59
2021/04/12 01:22:35;;;;;;;7.20;6.50;;;7.40;1.00;;;;;;5066598;28;20616;-59
2021/04/12 01:25:38;;;;;;;6.73;5.60;;;7.40;1.00;;;;;;5068375;28;20421;-60
2021/04/12 01:28:39;;;;;;;8.90;6.43;;;7.30;93.30;;;;;;5065847;28;20449;-59
2021/04/12 01:31:35;;;;;;;4.53;4.10;;;7.20;99.90;;;;;;5065535;28;20503;-58
2021/04/12 01:34:22;;;;;;;5.77;5.27;;;7.10;99.90;;;;;;5067202;28;21855;-57
2021/04/12 01:37:23;;;;;;;5.70;5.20;;;7.00;99.90;;;;;;5064929;28;20453;-58
2021/04/12 01:40:18;;;;;;;5.00;4.50;;;7.20;99.90;;;;;;5066509;28;20438;-58
2021/04/12 01:42:48;;;;;;;5.30;4.80;;;7.10;99.90;;;;;;5062438;28;20467;-59
2021/04/12 01:45:19;;;;;;;4.87;4.33;;;7.10;99.90;;;;;;5067629;28;20818;-58
2021/04/12 01:48:07;;;;;;;5.87;4.80;;;7.30;99.90;;;;;;5068625;28;20707;-60
2021/04/12 01:50:53;;;;;;;5.97;5.47;;;7.20;99.90;;;;;;5064734;28;20798;-59
2021/04/12 01:53:34;;;;;;;4.83;4.33;;;7.30;99.90;;;;;;5067515;28;20511;-60
2021/04/12 01:56:28;;;;;;;4.50;4.20;;;7.40;99.90;;;;;;5065269;28;20441;-60
2021/04/12 01:59:02;;;;;;;7.13;4.70;;;7.30;99.90;;;;;;5067758;28;20529;-59
2021/04/12 02:01:52;;;;;;;5.00;4.50;;;7.20;99.90;;;;;;5064441;28;20441;-58
2021/04/12 02:04:32;;;;;;;5.50;5.00;;;7.20;99.90;;;;;;5065018;28;20471;-59
2021/04/12 02:07:19;;;;;;;6.47;5.87;;;7.20;99.90;;;;;;5065277;28;20525;-59
2021/04/12 02:10:03;;;;;;;6.27;5.67;;;7.00;99.90;;;;;;5069064;28;20512;-58
2021/04/12 02:12:53;;;;;;;6.90;6.03;;;6.90;99.90;;;;;;5066301;28;20492;-58
2021/04/12 02:15:42;;;;;;;6.63;6.00;;;7.00;99.90;;;;;;5067658;28;20438;-59
2021/04/12 02:18:23;;;;;;;7.67;6.90;;;7.00;99.90;;;;;;5067146;28;20465;-58
2021/04/12 02:21:27;;;;;;;7.40;6.57;;;7.10;99.90;;;;;;5067159;28;20501;-58
2021/04/12 02:24:06;;;;;;;7.43;6.70;;;6.90;99.90;;;;;;5062740;28;20464;-58
2021/04/12 02:26:54;;;;;;;7.10;6.40;;;6.80;99.90;;;;;;5067458;28;20527;-58
2021/04/12 02:29:52;;;;;;;7.33;6.63;;;6.80;99.90;;;;;;5064820;28;20437;-60
2021/04/12 02:32:45;;;;;;;9.27;7.17;;;6.70;99.90;;;;;;5065122;28;20438;-60
2021/04/12 02:35:53;;;;;;;7.93;7.13;;;6.70;99.90;;;;;;5067368;28;20461;-58
2021/04/12 02:38:36;;;;;;;6.63;5.83;;;6.70;99.90;;;;;;5052007;28;20518;-59
2021/04/12 02:41:26;;;;;;;6.20;5.60;;;6.70;99.90;;;;;;5073602;28;20446;-59
2021/04/12 02:44:11;;;;;;;7.53;6.83;;;6.60;99.90;;;;;;5065479;28;20515;-59
2021/04/12 02:46:58;;;;;;;6.80;5.77;;;6.40;99.90;;;;;;5067413;28;20939;-59
2021/04/12 02:49:53;;;;;;;7.50;6.77;;;6.40;99.90;;;;;;5063382;28;20441;-58
2021/04/12 02:52:50;;;;;;;6.53;5.83;;;6.30;99.90;;;;;;5066437;28;20487;-58
2021/04/12 02:55:24;;;;;;;7.93;6.67;;;6.20;99.90;;;;;;5067383;28;20434;-59
2021/04/12 02:58:02;;;;;;;7.63;6.33;;;6.20;99.90;;;;;;5067474;28;20523;-57
2021/04/12 03:00:36;;;;;;;7.00;6.30;;;6.30;99.90;;;;;;5070130;28;20890;-57
2021/04/12 03:03:38;;;;;;;8.37;6.70;;;6.30;99.90;;;;;;5070256;28;20594;-59
2021/04/12 03:06:34;;;;;;;7.27;6.20;;;6.40;99.90;;;;;;5070010;28;20445;-60
2021/04/12 03:09:22;;;;;;;7.20;6.00;;;6.40;99.90;;;;;;5068892;28;20954;-60
2021/04/12 03:11:57;;;;;;;6.87;6.17;;;6.40;99.90;;;;;;5069582;28;20494;-58
2021/04/12 03:14:40;;;;;;;7.00;6.30;;;6.20;99.90;;;;;;5070136;28;20464;-57
2021/04/12 03:17:36;;;;;;;6.50;5.80;;;6.20;99.90;;;;;;5070281;28;20959;-59
2021/04/12 03:20:07;;;;;;;7.00;6.30;;;6.30;99.90;;;;;;5067432;28;20456;-57
2021/04/12 03:23:04;;;;;;;7.30;6.50;;;6.30;99.90;;;;;;5069823;28;20743;-58
2021/04/12 03:26:11;;;;;;;6.20;5.37;;;6.10;99.90;;;;;;5070141;28;20460;-57
2021/04/12 03:29:08;;;;;;;6.67;6.00;;;6.10;99.90;;;;;;5060447;28;20519;-59
2021/04/12 03:32:02;;;;;;;9.70;7.30;;;6.30;99.90;;;;;;5068024;28;20519;-59
2021/04/12 03:34:48;;;;;;;7.47;6.70;;;6.30;99.90;;;;;;5061312;28;20458;-59
2021/04/12 03:37:31;;;;;;;9.90;6.77;;;6.30;99.90;;;;;;5067772;28;20528;-57
2021/04/12 03:40:11;;;;;;;7.30;6.60;;;6.10;99.90;;;;;;5070737;28;20568;-59
2021/04/12 03:43:14;;;;;;;6.73;5.93;;;6.20;99.90;;;;;;5067660;28;20441;-60
2021/04/12 03:46:13;;;;;;;7.00;5.97;;;6.20;99.90;;;;;;5070794;28;20830;-58
2021/04/12 03:49:17;;;;;;;6.20;5.57;;;6.20;99.90;;;;;;5068860;28;20441;-58
2021/04/12 03:52:10;;;;;;;5.97;5.47;;;6.20;99.90;;;;;;5050491;28;20449;-59
2021/04/12 03:55:07;;;;;;;6.90;5.70;;;6.20;99.90;;;;;;5068866;28;20438;-59
2021/04/12 03:58:09;;;;;;;6.47;5.87;;;6.10;99.90;;;;;;5067251;28;20790;-59
2021/04/12 04:00:57;;;;;;;6.97;5.03;;;6.10;99.90;;;;;;5070139;28;20437;-58
2021/04/12 04:04:01;;;;;;;6.40;5.40;;;6.10;99.90;;;;;;5070743;28;20853;-59
2021/04/12 04:06:51;;;;;;;6.70;5.90;;;6.20;99.90;;;;;;5068039;28;20448;-58
2021/04/12 04:09:17;;;;;;;5.20;4.70;;;6.20;99.90;;;;;;5069308;28;20888;-58
2021/04/12 04:11:58;;;;;;;6.17;5.17;;;6.30;99.90;;;;;;5070134;28;20461;-59
2021/04/12 04:14:53;;;;;;;7.30;6.10;;;6.00;99.90;;;;;;5068731;28;20510;-57
2021/04/12 04:17:51;;;;;;;7.47;6.33;;;6.00;99.90;;;;;;5067240;28;20449;-58
2021/04/12 04:20:35;;;;;;;6.60;5.90;;;6.00;99.90;;;;;;5068994;28;20503;-59
2021/04/12 04:23:25;;;;;;;7.13;5.40;;;6.00;99.90;;;;;;5065121;28;20449;-58
2021/04/12 04:26:23;;;;;;;10.17;6.00;;;6.00;99.90;;;;;;5067833;28;20540;-60
2021/04/12 04:29:22;;;;;;;7.60;6.80;;;6.10;99.90;;;;;;5068580;28;20926;-57
2021/04/12 04:31:57;;;;;;;5.93;5.33;;;6.10;99.90;;;;;;5067446;28;20453;-59
2021/04/12 04:34:31;;;;;;;5.70;5.13;;;6.20;99.90;;;;;;5068342;28;20465;-60
2021/04/12 04:37:09;;;;;;;5.33;4.83;;;6.10;99.90;;;;;;5067876;28;20954;-60
2021/04/12 04:40:06;;;;;;;4.87;4.00;;;6.10;99.90;;;;;;5068682;28;20834;-59
2021/04/12 04:43:05;;;;;;;5.73;4.93;;;6.10;99.90;;;;;;5073750;28;21021;-59
2021/04/12 04:45:52;;;;;;;7.63;5.27;;;6.10;99.90;;;;;;5068140;28;20441;-58
2021/04/12 04:48:34;;;;;;;8.43;6.33;;;6.30;99.90;;;;;;5068652;28;20922;-60
2021/04/12 04:51:12;;;;;;;6.57;5.50;;;6.20;99.90;;;;;;5067748;28;20437;-59
2021/04/12 04:53:49;;;;;;;6.80;5.50;;;5.90;99.90;;;;;;5068398;28;20507;-58
2021/04/12 04:56:31;;;;;;;6.90;5.63;;;5.70;99.90;;;;;;5067933;28;20528;-59
2021/04/12 04:59:31;;;;;;;7.43;5.83;;;5.40;99.90;;;;;;5068217;28;20433;-59
2021/04/12 05:02:01;;;;;;;7.70;5.67;;;5.20;99.90;;;;;;5023993;28;20450;-58
2021/04/12 05:04:59;;;;;;;6.73;5.30;;;4.90;99.90;;;;;;5067670;28;20438;-58
2021/04/12 05:07:46;;;;;;;7.23;5.13;;;4.90;99.90;;;;;;5069131;28;20434;-56
2021/04/12 05:10:52;;;;;;;7.10;5.80;;;4.70;99.90;;;;;;5066940;28;20895;-59
2021/04/12 05:13:46;;;;;;;8.50;6.40;;;4.80;99.90;;;;;;5066830;28;20843;-59
2021/04/12 05:16:23;;;;;;;7.23;5.10;;;4.80;99.90;;;;;;5078605;28;20438;-58
2021/04/12 05:19:07;;;;;;;6.70;5.87;;;4.90;99.90;;;;;;5069886;28;20673;-60
2021/04/12 05:21:44;;;;;;;7.80;6.17;;;5.00;99.90;;;;;;5072138;28;20453;-59
2021/04/12 05:24:24;;;;;;;7.07;5.30;;;4.90;99.90;;;;;;5076969;28;20482;-58
2021/04/12 05:27:06;;;;;;;9.97;5.87;;;4.80;99.90;;;;;;5072942;28;20469;-59
2021/04/12 05:30:16;;;;;;;8.20;5.37;;;4.90;99.90;;;;;;5065032;28;20438;-60
2021/04/12 05:33:09;;;;;;;6.50;5.10;;;5.00;99.90;;;;;;5066463;28;20457;-57
2021/04/12 05:35:53;;;;;;;7.27;5.70;;;5.10;99.90;;;;;;5067063;28;20445;-58
2021/04/12 05:38:40;;;;;;;7.70;5.60;;;5.00;99.90;;;;;;5067120;28;20461;-59
2021/04/12 05:41:35;;;;;;;8.10;5.40;;;5.00;99.90;;;;;;5066120;28;20433;-59
2021/04/12 05:44:15;;;;;;;7.80;6.23;;;5.00;99.90;;;;;;5068403;28;20873;-59
2021/04/12 05:47:14;;;;;;;6.73;5.77;;;5.10;99.90;;;;;;5068184;28;21040;-58
2021/04/12 05:50:03;;;;;;;7.77;6.47;;;5.20;99.90;;;;;;5066619;28;20490;-59
2021/04/12 05:52:57;;;;;;;8.30;6.20;;;5.30;99.90;;;;;;5066991;28;20458;-58
2021/04/12 05:56:11;;;;;;;6.03;5.03;;;5.20;99.90;;;;;;5054574;28;20445;-59
2021/04/12 05:58:54;;;;;;;6.53;5.10;;;5.10;99.90;;;;;;5048785;28;20602;-58
2021/04/12 06:01:44;;;;;;;6.47;5.23;;;4.90;99.90;;;;;;5066889;28;20441;-57
2021/04/12 06:04:20;;;;;;;8.07;5.60;;;4.80;99.90;;;;;;5066394;28;20449;-58
2021/04/12 06:06:51;;;;;;;6.50;4.80;;;4.80;99.90;;;;;;5067630;28;20440;-59
2021/04/12 06:09:30;;;;;;;8.13;5.80;;;4.80;99.90;;;;;;5066470;28;20433;-58
2021/04/12 06:12:27;;;;;;;6.10;4.90;;;4.90;99.90;;;;;;5065769;28;20445;-60
2021/04/12 06:15:18;;;;;;;6.63;5.90;;;4.90;99.90;;;;;;5067517;28;20437;-57
2021/04/12 06:18:21;;;;;;;6.37;5.20;;;4.90;99.90;;;;;;5066980;28;20521;-58
2021/04/12 06:21:14;;;;;;;6.10;4.90;;;5.00;99.90;;;;;;5065893;28;20478;-58
2021/04/12 06:23:54;;;;;;;12.30;6.60;;;5.10;99.90;;;;;;5064371;28;20445;-58
2021/04/12 06:26:57;;;;;;;5.90;5.30;;;5.20;99.90;;;;;;5067191;28;20508;-59
2021/04/12 06:29:50;;;;;;;6.17;5.57;;;5.30;99.90;;;;;;5066530;28;20491;-59
2021/04/12 06:32:50;;;;;;;5.47;4.90;;;5.30;99.90;;;;;;5066989;28;21053;-58
2021/04/12 06:35:30;;;;;;;5.63;5.03;;;5.20;99.90;;;;;;5069715;28;20497;-60
2021/04/12 06:38:15;;;;;;;9.93;6.20;;;5.10;99.90;;;;;;5070687;28;20429;-60
2021/04/12 06:41:17;;;;;;;6.70;5.33;;;5.00;99.90;;;;;;5070099;28;20468;-58
2021/04/12 06:43:52;;;;;;;5.70;5.10;;;5.00;99.90;;;;;;5072822;28;20441;-58
2021/04/12 06:46:42;;;;;;;7.23;5.60;;;5.00;99.90;;;;;;5070493;28;20450;-59
2021/04/12 06:49:29;;;;;;;7.60;5.80;;;5.10;99.90;;;;;;5070645;28;20441;-58
2021/04/12 06:52:12;;;;;;;5.60;5.10;;;5.30;99.90;;;;;;5069856;28;20811;-59
2021/04/12 06:55:19;;;;;;;5.87;4.80;;;5.50;99.90;;;;;;5070763;28;20514;-58
2021/04/12 06:58:22;;;;;;;6.17;5.00;;;5.30;99.90;;;;;;5064240;28;20454;-58
2021/04/12 07:01:24;;;;;;;7.80;5.50;;;5.20;99.90;;;;;;5068610;28;20444;-60
2021/04/12 07:04:12;;;;;;;7.10;5.30;;;5.10;99.90;;;;;;5069011;28;20437;-57
2021/04/12 07:07:23;;;;;;;5.97;5.10;;;5.30;99.90;;;;;;5070378;28;20473;-59
2021/04/12 07:10:15;;;;;;;6.67;5.17;;;5.70;99.90;;;;;;5069187;28;20524;-59
2021/04/12 07:13:13;;;;;;;5.80;5.20;;;5.60;99.90;;;;;;5068153;28;20529;-60
2021/04/12 07:16:15;;;;;;;5.60;4.97;;;5.80;99.90;;;;;;5069891;28;20441;-59
2021/04/12 07:19:09;;;;;;;6.93;5.43;;;6.10;99.90;;;;;;5074829;28;20460;-59
2021/04/12 07:21:53;;;;;;;8.07;5.80;;;6.10;99.90;;;;;;5069057;28;20524;-59
2021/04/12 07:24:50;;;;;;;6.90;5.67;;;6.50;99.90;;;;;;5070699;28;20946;-58
2021/04/12 07:27:24;;;;;;;5.97;5.00;;;6.00;99.90;;;;;;5068621;28;20481;-59
2021/04/12 07:30:22;;;;;;;6.57;5.70;;;5.90;99.90;;;;;;5069679;28;20441;-60
2021/04/12 07:33:27;;;;;;;5.57;4.93;;;5.90;99.90;;;;;;5069319;28;20461;-61
2021/04/12 07:36:11;;;;;;;5.90;4.47;;;5.90;99.90;;;;;;5068772;28;20452;-59
2021/04/12 07:39:17;;;;;;;4.83;4.17;;;5.70;99.90;;;;;;5068525;28;20512;-60
2021/04/12 07:42:16;;;;;;;4.87;4.40;;;5.70;99.90;;;;;;5069194;28;20517;-60
2021/04/12 07:44:48;;;;;;;4.93;4.30;;;5.60;99.90;;;;;;5068066;28;20433;-59
2021/04/12 07:47:51;;;;;;;6.07;3.70;;;5.60;99.90;;;;;;5068270;28;20465;-57
2021/04/12 07:50:46;;;;;;;4.37;3.70;;;5.60;99.90;;;;;;5069362;28;20452;-60
2021/04/12 07:53:46;;;;;;;5.27;3.90;;;5.50;99.90;;;;;;5070108;28;20951;-61
2021/04/12 07:56:37;;;;;;;5.00;4.23;;;5.50;99.90;;;;;;5070999;28;20437;-59
2021/04/12 07:59:40;;;;;;;4.90;3.93;;;5.60;99.90;;;;;;5070548;28;20434;-59
2021/04/12 08:02:32;;;;;;;4.23;3.67;;;5.70;99.90;;;;;;5068478;28;20486;-58
2021/04/12 08:05:16;;;;;;;4.10;3.70;;;5.90;99.90;;;;;;5069107;28;20494;-58
2021/04/12 08:08:09;;;;;;;4.63;3.80;;;5.50;99.90;;;;;;5069587;28;20786;-60
2021/04/12 08:11:12;;;;;;;4.00;3.57;;;5.40;99.90;;;;;;5068607;28;20799;-61
2021/04/12 08:14:12;;;;;;;4.13;3.73;;;5.40;99.90;;;;;;5067918;28;21001;-60
2021/04/12 08:16:56;;;;;;;4.17;3.53;;;5.40;99.90;;;;;;5068181;28;20433;-59
2021/04/12 08:19:35;;;;;;;5.13;3.63;;;5.50;99.90;;;;;;5070024;28;20481;-58
2021/04/12 08:22:38;;;;;;;6.23;3.43;;;5.50;99.90;;;;;;5068535;28;20444;-59
2021/04/12 08:25:34;;;;;;;4.00;3.70;;;5.60;99.90;;;;;;5066709;28;20547;-60
2021/04/12 08:28:11;;;;;;;3.73;3.30;;;5.50;99.90;;;;;;5069413;28;20485;-59
2021/04/12 08:31:04;;;;;;;4.50;4.10;;;5.40;99.90;;;;;;5069493;28;20458;-60
2021/04/12 08:33:52;;;;;;;3.30;3.00;;;5.20;99.90;;;;;;5069725;28;20827;-60
2021/04/12 08:36:49;;;;;;;3.60;3.20;;;5.20;99.90;;;;;;5073816;28;20434;-61
2021/04/12 08:39:14;;;;;;;3.97;3.57;;;5.30;99.90;;;;;;5083661;28;20432;-59
2021/04/12 08:42:05;;;;;;;4.13;3.67;;;5.30;99.90;;;;;;5091496;28;20474;-60
2021/04/12 08:45:25;;;;;;;4.20;3.40;;;5.50;99.90;;;;;;5084542;28;20187;-60
2021/04/12 08:48:17;;;;;;;3.70;3.30;;;5.50;99.90;;;;;;5007135;28;20462;-60
2021/04/12 08:50:52;;;;;;;4.17;3.57;;;5.70;99.90;;;;;;5079963;28;20537;-60
2021/04/12 08:53:36;;;;;;;5.60;3.87;;;5.90;99.90;;;;;;5078026;28;20461;-59
2021/04/12 08:56:16;;;;;;;4.53;3.80;;;5.90;99.90;;;;;;5089325;28;20430;-59
2021/04/12 08:58:48;;;;;;;5.57;4.60;;;6.10;99.90;;;;;;5074775;28;20433;-59
2021/04/12 09:01:51;;;;;;;5.60;5.00;;;6.10;99.90;;;;;;5070644;28;20452;-60
2021/04/12 09:04:38;;;;;;;7.23;5.17;;;6.00;99.90;;;;;;5068409;28;20437;-59
2021/04/12 09:07:21;;;;;;;8.10;5.57;;;6.00;99.90;;;;;;5067772;28;20471;-60
2021/04/12 09:10:05;;;;;;;5.70;5.00;;;6.10;99.90;;;;;;5070377;28;20438;-60
2021/04/12 09:12:38;;;;;;;7.30;5.90;;;8.20;99.90;;;;;;5070059;28;20575;-59
2021/04/12 09:15:42;;;;;;;6.30;5.00;;;6.40;99.90;;;;;;5085701;28;20858;-59
2021/04/12 09:18:45;;;;;;;7.90;5.97;;;6.50;99.90;;;;;;5089224;28;20515;-59
2021/04/12 09:21:32;;;;;;;7.90;6.70;;;6.30;99.90;;;;;;5078883;28;20441;-58
2021/04/12 09:24:41;;;;;;;7.43;6.00;;;6.00;99.90;;;;;;5070480;28;20448;-59
2021/04/12 09:27:25;;;;;;;8.00;6.67;;;6.30;99.90;;;;;;5070458;28;20493;-60
2021/04/12 09:30:21;;;;;;;7.20;6.17;;;6.30;99.90;;;;;;5070328;28;20757;-59
2021/04/12 09:33:05;;;;;;;7.90;5.83;;;6.50;99.90;;;;;;5069574;28;20966;-58
2021/04/12 09:35:56;;;;;;;8.80;7.07;;;6.60;99.90;;;;;;5070062;28;20927;-60
2021/04/12 09:38:58;;;;;;;7.20;6.03;;;6.80;99.90;;;;;;5070958;28;20430;-60
2021/04/12 09:41:27;;;;;;;9.67;7.80;;;6.60;99.90;;;;;;5070107;28;20858;-59
2021/04/12 09:44:24;;;;;;;7.87;6.97;;;6.40;99.90;;;;;;5068354;28;20429;-60
2021/04/12 09:47:14;;;;;;;7.83;7.00;;;6.50;99.90;;;;;;5068293;28;20445;-55
2021/04/12 09:50:03;;;;;;;9.00;7.20;;;6.80;99.90;;;;;;5070341;28;20447;-56
2021/04/12 09:52:35;;;;;;;8.00;6.30;;;6.80;99.90;;;;;;5069925;28;20437;-58
2021/04/12 09:55:45;;;;;;;7.73;6.90;;;6.70;99.90;;;;;;5069284;28;20970;-56
2021/04/12 09:58:38;;;;;;;8.10;6.93;;;6.70;99.90;;;;;;5039475;28;20791;-57
2021/04/12 10:01:13;;;;;;;14.13;8.50;;;6.80;99.90;;;;;;5070038;28;20449;-56
2021/04/12 10:04:18;;;;;;;9.60;7.20;;;7.00;99.90;;;;;;5069761;28;20472;-57
2021/04/12 10:07:06;;;;;;;8.97;7.03;;;7.20;99.90;;;;;;5069952;28;20445;-56
2021/04/12 10:10:03;;;;;;;8.40;7.13;;;7.50;99.90;;;;;;5094391;28;20428;-56
2021/04/12 10:13:06;;;;;;;9.70;7.80;;;7.60;99.90;;;;;;5089964;28;20535;-58
2021/04/12 10:15:40;;;;;;;8.30;6.57;;;7.90;99.90;;;;;;5080697;28;20432;-57
2021/04/12 10:18:09;;;;;;;9.60;8.40;;;8.00;99.90;;;;;;5092975;28;20429;-57
2021/04/12 10:20:42;;;;;;;7.97;7.17;;;7.90;97.90;;;;;;5093965;28;20752;-56
2021/04/12 10:23:25;;;;;;;10.80;8.20;;;8.00;88.50;;;;;;5089724;28;20508;-57
2021/04/12 10:26:07;;;;;;;10.87;9.10;;;8.10;92.60;;;;;;5055213;28;20498;-57
2021/04/12 10:28:46;;;;;;;8.20;7.30;;;8.50;74.90;;;;;;5073674;28;20530;-58
2021/04/12 10:31:27;;;;;;;7.97;7.17;;;8.50;47.00;;;;;;5078773;28;20878;-58
2021/04/12 10:34:13;;;;;;;8.50;7.50;;;8.60;42.20;;;;;;5083063;28;20553;-59
2021/04/12 10:37:00;;;;;;;9.50;7.30;;;8.60;49.30;;;;;;5073684;28;20469;-59
2021/04/12 10:39:28;;;;;;;10.53;7.70;;;8.70;52.40;;;;;;5073528;28;20908;-57
2021/04/12 10:42:07;;;;;;;7.87;7.07;;;8.80;52.00;;;;;;5072752;28;20471;-57
2021/04/12 10:44:54;;;;;;;7.40;6.30;;;8.80;1.00;;;;;;5073153;28;20443;-57
2021/04/12 10:47:27;;;;;;;6.90;5.80;;;8.60;1.00;;;;;;5073367;28;20522;-58
2021/04/12 10:50:04;;;;;;;10.50;6.40;;;8.20;1.00;;;;;;5073396;28;20437;-57
2021/04/12 10:53:11;;;;;;;7.90;6.23;;;7.70;35.00;;;;;;5073181;28;20535;-56
2021/04/12 10:55:39;;;;;;;9.40;6.20;;;7.20;99.90;;;;;;5042455;28;21004;-57
2021/04/12 10:58:11;;;;;;;7.73;6.60;;;6.90;99.90;;;;;;5082858;28;20515;-55
2021/04/12 11:00:48;;;;;;;8.67;7.00;;;6.80;99.90;;;;;;5092146;28;20432;-57
2021/04/12 11:03:44;;;;;;;7.90;6.17;;;6.50;99.90;;;;;;5092830;28;20424;-56
2021/04/12 11:06:51;;;;;;;8.10;6.43;;;7.10;99.90;;;;;;5082130;28;20934;-54
2021/04/12 11:09:22;;;;;;;7.83;6.87;;;7.30;99.90;;;;;;5072650;28;20499;-56
2021/04/12 11:11:58;;;;;;;8.00;6.70;;;7.30;99.90;;;;;;5075921;28;20821;-56
2021/04/12 11:14:31;;;;;;;9.50;5.90;;;7.70;99.90;;;;;;5072762;28;20564;-56
2021/04/12 11:17:14;;;;;;;7.23;5.90;;;7.80;99.90;;;;;;5072828;28;20954;-55
2021/04/12 11:19:48;;;;;;;5.83;5.20;;;7.90;99.90;;;;;;5071750;28;20436;-57
2021/04/12 11:22:56;;;;;;;6.57;5.83;;;8.10;99.90;;;;;;5072448;28;20429;-56
2021/04/12 11:25:48;;;;;;;6.50;5.50;;;8.10;99.90;;;;;;5071998;28;20438;-57
2021/04/12 11:28:36;;;;;;;8.80;6.60;;;8.10;99.90;;;;;;5072565;28;20480;-57
2021/04/12 11:31:46;;;;;;;5.80;5.20;;;8.10;99.90;;;;;;5072487;28;20998;-57
2021/04/12 11:34:20;;;;;;;8.67;6.10;;;8.00;99.30;;;;;;5039286;28;20469;-56
2021/04/12 11:37:10;;;;;;;5.87;4.83;;;7.80;99.90;;;;;;5072512;28;20516;-56
2021/04/12 11:39:40;;;;;;;7.60;5.20;;;7.30;99.90;;;;;;5071014;28;20441;-55
2021/04/12 11:42:12;;;;;;;6.60;5.30;;;6.90;99.90;;;;;;5072113;28;20454;-56
2021/04/12 11:44:39;;;;;;;6.50;5.90;;;6.70;99.90;;;;;;5072167;28;20852;-57
2021/04/12 11:47:18;;;;;;;7.30;6.17;;;7.10;99.90;;;;;;5072176;28;20437;-57
2021/04/12 11:50:09;;;;;;;6.70;6.00;;;7.60;99.90;;;;;;5071868;28;20455;-58
2021/04/12 11:52:58;;;;;;;6.30;5.70;;;7.90;99.90;;;;;;5072050;28;20425;-58
2021/04/12 11:55:43;;;;;;;6.50;5.30;;;8.10;85.90;;;;;;5070100;28;20951;-57
2021/04/12 11:58:30;;;;;;;7.13;6.07;;;8.00;95.70;;;;;;5072184;28;20601;-58
2021/04/12 12:01:15;;;;;;;6.00;5.40;;;7.90;92.00;;;;;;5071894;28;20568;-58
2021/04/12 12:03:56;;;;;;;4.30;3.90;;;8.00;81.50;;;;;;5071893;28;20434;-56
2021/04/12 12:06:43;;;;;;;4.20;3.53;;;7.90;1.60;;;;;;5071697;28;20441;-58
2021/04/12 12:09:27;;;;;;;3.37;3.07;;;7.60;1.00;;;;;;5071949;28;20862;-58
2021/04/12 12:12:07;;;;;;;4.00;3.03;;;7.40;1.00;;;;;;5071537;28;21023;-56
2021/04/12 12:14:50;;;;;;;3.70;3.37;;;7.40;1.00;;;;;;5071461;28;20975;-57
2021/04/12 12:17:21;;;;;;;3.80;3.20;;;7.50;6.80;;;;;;5071185;28;20443;-56
2021/04/12 12:19:55;;;;;;;3.80;3.43;;;9.70;1.00;;;;;;5071144;28;20446;-58
2021/04/12 12:22:27;;;;;;;5.10;4.00;;;7.50;1.00;;;;;;5071554;28;20435;-57
2021/04/12 12:25:26;;;;;;;5.37;4.90;;;7.60;1.00;;;;;;5070954;28;20453;-56
2021/04/12 12:28:08;;;;;;;3.90;3.50;;;7.60;1.00;;;;;;5066317;28;20567;-57
2021/04/12 12:30:56;;;;;;;6.13;4.03;;;7.30;1.00;;;;;;5069696;28;20521;-57
2021/04/12 12:33:33;;;;;;;7.23;4.07;;;7.10;8.60;;;;;;5071435;28;20480;-58
2021/04/12 12:36:12;;;;;;;5.73;4.50;;;7.30;17.90;;;;;;5071129;28;20779;-58
2021/04/12 12:38:50;;;;;;;4.73;3.80;;;7.50;8.30;;;;;;5069807;28;20438;-59
2021/04/12 12:41:20;;;;;;;5.03;4.10;;;7.70;3.70;;;;;;5068882;28;20931;-57
2021/04/12 12:43:48;;;;;;;4.57;4.00;;;7.80;1.50;;;;;;5070218;28;20438;-59
2021/04/12 12:46:21;;;;;;;4.00;3.20;;;7.70;1.00;;;;;;5072481;28;20452;-58
2021/04/12 12:48:51;;;;;;;4.30;3.30;;;7.60;1.00;;;;;;5068631;28;20445;-56
2021/04/12 12:51:27;;;;;;;3.40;2.80;;;7.60;1.00;;;;;;5082734;28;20532;-58
2021/04/12 12:54:06;;;;;;;3.60;2.63;;;7.60;1.00;;;;;;5069595;28;20815;-58
2021/04/12 12:56:37;;;;;;;4.07;3.43;;;7.80;1.00;;;;;;5067247;28;20476;-56
2021/04/12 12:59:09;;;;;;;5.30;4.60;;;7.80;1.00;;;;;;5069464;28;20938;-58
2021/04/12 13:01:38;;;;;;;6.27;3.67;;;7.90;1.00;;;;;;5069272;28;20965;-58
2021/04/12 13:04:25;;;;;;;5.27;3.90;;;8.00;1.00;;;;;;5069634;28;20927;-56
2021/04/12 13:06:54;;;;;;;4.47;4.07;;;7.90;1.00;;;;;;5068443;28;20511;-57
2021/04/12 13:09:31;;;;;;;4.97;4.13;;;8.00;1.00;;;;;;5070083;28;20446;-59
2021/04/12 13:12:13;;;;;;;3.50;3.07;;;8.20;1.00;;;;;;5069165;28;20450;-58
2021/04/12 13:14:44;;;;;;;4.40;3.30;;;8.20;1.00;;;;;;5068093;28;20468;-58
2021/04/12 13:17:19;;;;;;;3.20;2.90;;;8.20;1.00;;;;;;5069760;28;20882;-58
2021/04/12 13:19:52;;;;;;;5.30;3.07;;;8.30;1.00;;;;;;5069072;28;20472;-59
2021/04/12 13:22:26;;;;;;;5.83;2.87;;;8.10;1.00;;;;;;5069097;28;20495;-59
2021/04/12 13:24:53;;;;;;;3.50;3.20;;;8.40;1.00;;;;;;5069375;28;20530;-60
2021/04/12 13:27:24;;;;;;;3.77;3.33;;;8.50;1.00;;;;;;5068074;28;20986;-57
2021/04/12 13:29:54;;;;;;;3.37;3.07;;;11.70;1.00;;;;;;5069488;28;20460;-58
2021/04/12 13:32:25;;;;;;;3.37;2.90;;;8.80;1.00;;;;;;5069529;28;20439;-57
2021/04/12 13:35:05;;;;;;;3.20;2.53;;;9.10;1.00;;;;;;5070545;28;20977;-57
2021/04/12 13:37:43;;;;;;;4.30;3.07;;;9.10;1.00;;;;;;5069757;28;20472;-59
2021/04/12 13:40:24;;;;;;;3.30;3.00;;;8.90;1.00;;;;;;5070074;28;20431;-57
2021/04/12 13:43:04;;;;;;;2.83;2.50;;;9.20;1.00;;;;;;5068771;28;20943;-58
2021/04/12 13:45:46;;;;;;;5.10;4.00;;;9.40;1.00;;;;;;5069117;28;20452;-59
2021/04/12 13:48:23;;;;;;;3.93;3.07;;;9.40;1.00;;;;;;5070343;28;20443;-58
2021/04/12 13:51:02;;;;;;;3.83;3.00;;;9.40;1.00;;;;;;5065999;28;21021;-59
2021/04/12 13:53:48;;;;;;;4.13;3.50;;;9.40;1.00;;;;;;5066775;28;20458;-58
2021/04/12 13:56:35;;;;;;;4.60;3.03;;;9.40;1.00;;;;;;5066401;28;20438;-56
2021/04/12 13:59:08;;;;;;;3.73;2.97;;;9.30;1.00;;;;;;5055245;28;20439;-57
2021/04/12 14:01:38;;;;;;;3.40;3.10;;;9.30;1.00;;;;;;5067423;28;20433;-57
2021/04/12 14:04:18;;;;;;;3.80;3.30;;;9.20;1.00;;;;;;5067830;28;20446;-58
2021/04/12 14:06:50;;;;;;;2.67;2.47;;;8.90;1.00;;;;;;5066453;28;20473;-59
2021/04/12 14:09:43;;;;;;;3.83;3.50;;;8.80;1.00;;;;;;5068400;28;20832;-60
2021/04/12 14:12:18;;;;;;;3.60;3.30;;;8.80;1.00;;;;;;5066516;28;20435;-59
2021/04/12 14:14:54;;;;;;;4.30;2.80;;;8.80;1.00;;;;;;5067611;28;21042;-58
2021/04/12 14:17:25;;;;;;;5.17;4.77;;;9.00;1.00;;;;;;5066891;28;20439;-59
2021/04/12 14:20:00;;;;;;;4.90;4.17;;;9.00;1.00;;;;;;5066086;28;20978;-58
2021/04/12 14:22:26;;;;;;;4.77;3.50;;;;;;;;;;5067061;28;20442;-58
2021/04/12 14:25:12;;;;;;;3.97;3.30;;;9.00;1.00;;;;;;5067296;28;20516;-59
2021/04/12 14:27:41;;;;;;;4.30;3.70;;;9.20;1.00;;;;;;5066513;28;20976;-59
2021/04/12 14:30:16;;;;;;;3.53;2.77;;;9.60;1.00;;;;;;5066721;28;20832;-59
2021/04/12 14:32:47;;;;;;;2.27;2.07;;;9.70;1.00;;;;;;5066559;28;20946;-58
2021/04/12 14:35:41;;;;;;;2.90;2.70;;;9.80;1.00;;;;;;5066786;28;20815;-58
2021/04/12 14:38:10;;;;;;;3.50;2.40;;;9.90;1.00;;;;;;5065645;28;20453;-58